sensor_id;sensor_type;location;lat;lon;timestamp;P1;durP1;ratioP1;P2;durP2;ratioP2
14276;SDS011;7222;57.346;12.150;2023-05-07T00:01:34;1.67;;;1.40;;
14276;SDS011;7222;57.346;12.150;2023-05-07T00:04:01;1.70;;;1.60;;
14276;SDS011;7222;57.346;12.150;2023-05-07T00:06:28;2.13;;;1.43;;
14276;SDS011;7222;57.346;12.150;2023-05-07T00:08:55;1.80;;;1.60;;
14276;SDS011;7222;57.346;12.150;2023-05-07T00:11:23;1.40;;;1.30;;
14276;SDS011;7222;57.346;12.150;2023-05-07T00:13:52;1.83;;;1.70;;
14276;SDS011;7222;57.346;12.150;2023-05-07T00:16:19;4.93;;;1.80;;
14276;SDS011;7222;57.346;12.150;2023-05-07T00:18:46;1.63;;;1.40;;
14276;SDS011;7222;57.346;12.150;2023-05-07T00:21:13;1.60;;;1.50;;
14276;SDS011;7222;57.346;12.150;2023-05-07T00:23:40;1.77;;;1.67;;
14276;SDS011;7222;57.346;12.150;2023-05-07T00:26:06;3.53;;;1.67;;
14276;SDS011;7222;57.346;12.150;2023-05-07T00:28:34;1.77;;;1.67;;
14276;SDS011;7222;57.346;12.150;2023-05-07T00:31:02;2.37;;;1.50;;
14276;SDS011;7222;57.346;12.150;2023-05-07T00:33:29;1.93;;;1.60;;
14276;SDS011;7222;57.346;12.150;2023-05-07T00:35:56;2.17;;;1.70;;
14276;SDS011;7222;57.346;12.150;2023-05-07T00:38:23;1.80;;;1.50;;
14276;SDS011;7222;57.346;12.150;2023-05-07T00:40:50;1.40;;;1.30;;
14276;SDS011;7222;57.346;12.150;2023-05-07T00:43:17;2.17;;;1.30;;
14276;SDS011;7222;57.346;12.150;2023-05-07T00:45:44;1.77;;;1.67;;
14276;SDS011;7222;57.346;12.150;2023-05-07T00:48:12;2.80;;;1.63;;
14276;SDS011;7222;57.346;12.150;2023-05-07T00:50:39;2.97;;;1.80;;
14276;SDS011;7222;57.346;12.150;2023-05-07T00:53:06;1.90;;;1.80;;
14276;SDS011;7222;57.346;12.150;2023-05-07T00:55:33;3.57;;;1.90;;
14276;SDS011;7222;57.346;12.150;2023-05-07T00:58:01;1.67;;;1.57;;
14276;SDS011;7222;57.346;12.150;2023-05-07T01:00:29;1.93;;;1.50;;
14276;SDS011;7222;57.346;12.150;2023-05-07T01:02:56;2.23;;;1.67;;
14276;SDS011;7222;57.346;12.150;2023-05-07T01:05:25;2.97;;;1.73;;
14276;SDS011;7222;57.346;12.150;2023-05-07T01:07:53;2.67;;;1.70;;
14276;SDS011;7222;57.346;12.150;2023-05-07T01:10:21;2.67;;;1.53;;
14276;SDS011;7222;57.346;12.150;2023-05-07T01:12:49;1.80;;;1.70;;
14276;SDS011;7222;57.346;12.150;2023-05-07T01:15:17;2.20;;;2.00;;
14276;SDS011;7222;57.346;12.150;2023-05-07T01:17:44;1.97;;;1.77;;
14276;SDS011;7222;57.346;12.150;2023-05-07T01:20:11;2.03;;;1.80;;
14276;SDS011;7222;57.346;12.150;2023-05-07T01:22:40;2.27;;;1.70;;
14276;SDS011;7222;57.346;12.150;2023-05-07T01:25:09;2.43;;;1.60;;
14276;SDS011;7222;57.346;12.150;2023-05-07T01:27:35;1.97;;;1.77;;
14276;SDS011;7222;57.346;12.150;2023-05-07T01:30:02;1.67;;;1.57;;
14276;SDS011;7222;57.346;12.150;2023-05-07T01:32:32;1.60;;;1.50;;
14276;SDS011;7222;57.346;12.150;2023-05-07T01:35:05;1.60;;;1.50;;
14276;SDS011;7222;57.346;12.150;2023-05-07T01:37:35;2.17;;;1.63;;
14276;SDS011;7222;57.346;12.150;2023-05-07T01:40:05;2.10;;;1.70;;
14276;SDS011;7222;57.346;12.150;2023-05-07T01:42:33;1.50;;;1.40;;
14276;SDS011;7222;57.346;12.150;2023-05-07T01:45:00;1.63;;;1.53;;
14276;SDS011;7222;57.346;12.150;2023-05-07T01:47:28;1.93;;;1.63;;
14276;SDS011;7222;57.346;12.150;2023-05-07T01:49:56;3.03;;;1.73;;
14276;SDS011;7222;57.346;12.150;2023-05-07T01:52:23;1.90;;;1.73;;
14276;SDS011;7222;57.346;12.150;2023-05-07T01:54:50;2.83;;;1.80;;
14276;SDS011;7222;57.346;12.150;2023-05-07T01:57:18;1.97;;;1.80;;
14276;SDS011;7222;57.346;12.150;2023-05-07T01:59:46;1.80;;;1.70;;
14276;SDS011;7222;57.346;12.150;2023-05-07T02:02:13;3.30;;;1.77;;
14276;SDS011;7222;57.346;12.150;2023-05-07T02:04:39;2.10;;;1.90;;
14276;SDS011;7222;57.346;12.150;2023-05-07T02:07:06;2.87;;;1.97;;
14276;SDS011;7222;57.346;12.150;2023-05-07T02:09:33;2.40;;;2.00;;
14276;SDS011;7222;57.346;12.150;2023-05-07T02:12:00;1.70;;;1.57;;
14276;SDS011;7222;57.346;12.150;2023-05-07T02:14:28;1.63;;;1.53;;
14276;SDS011;7222;57.346;12.150;2023-05-07T02:16:55;2.50;;;1.70;;
14276;SDS011;7222;57.346;12.150;2023-05-07T02:19:22;2.33;;;1.93;;
14276;SDS011;7222;57.346;12.150;2023-05-07T02:21:49;3.23;;;1.90;;
14276;SDS011;7222;57.346;12.150;2023-05-07T02:24:16;2.00;;;1.90;;
14276;SDS011;7222;57.346;12.150;2023-05-07T02:26:42;1.87;;;1.77;;
14276;SDS011;7222;57.346;12.150;2023-05-07T02:29:09;2.63;;;1.97;;
14276;SDS011;7222;57.346;12.150;2023-05-07T02:31:38;3.57;;;2.17;;
14276;SDS011;7222;57.346;12.150;2023-05-07T02:34:04;3.03;;;1.70;;
14276;SDS011;7222;57.346;12.150;2023-05-07T02:36:31;1.80;;;1.70;;
14276;SDS011;7222;57.346;12.150;2023-05-07T02:38:58;2.00;;;1.80;;
14276;SDS011;7222;57.346;12.150;2023-05-07T02:41:25;1.83;;;1.67;;
14276;SDS011;7222;57.346;12.150;2023-05-07T02:43:53;2.00;;;1.70;;
14276;SDS011;7222;57.346;12.150;2023-05-07T02:46:20;3.97;;;1.77;;
14276;SDS011;7222;57.346;12.150;2023-05-07T02:48:48;2.80;;;2.00;;
14276;SDS011;7222;57.346;12.150;2023-05-07T02:51:16;2.07;;;1.67;;
14276;SDS011;7222;57.346;12.150;2023-05-07T02:53:45;1.73;;;1.63;;
14276;SDS011;7222;57.346;12.150;2023-05-07T02:56:13;2.87;;;2.00;;
14276;SDS011;7222;57.346;12.150;2023-05-07T02:58:40;3.50;;;2.10;;
14276;SDS011;7222;57.346;12.150;2023-05-07T03:01:08;2.27;;;1.60;;
14276;SDS011;7222;57.346;12.150;2023-05-07T03:03:34;1.70;;;1.60;;
14276;SDS011;7222;57.346;12.150;2023-05-07T03:06:04;2.30;;;1.93;;
14276;SDS011;7222;57.346;12.150;2023-05-07T03:08:31;2.83;;;1.60;;
14276;SDS011;7222;57.346;12.150;2023-05-07T03:10:58;2.80;;;1.80;;
14276;SDS011;7222;57.346;12.150;2023-05-07T03:13:25;2.20;;;1.93;;
14276;SDS011;7222;57.346;12.150;2023-05-07T03:15:52;2.53;;;2.20;;
14276;SDS011;7222;57.346;12.150;2023-05-07T03:18:20;2.47;;;1.50;;
14276;SDS011;7222;57.346;12.150;2023-05-07T03:20:47;1.97;;;1.87;;
14276;SDS011;7222;57.346;12.150;2023-05-07T03:23:16;2.07;;;1.87;;
14276;SDS011;7222;57.346;12.150;2023-05-07T03:25:43;3.00;;;1.80;;
14276;SDS011;7222;57.346;12.150;2023-05-07T03:28:10;3.07;;;2.10;;
14276;SDS011;7222;57.346;12.150;2023-05-07T03:30:37;5.90;;;2.77;;
14276;SDS011;7222;57.346;12.150;2023-05-07T03:33:04;2.10;;;1.80;;
14276;SDS011;7222;57.346;12.150;2023-05-07T03:35:30;2.33;;;1.70;;
14276;SDS011;7222;57.346;12.150;2023-05-07T03:37:58;2.00;;;1.60;;
14276;SDS011;7222;57.346;12.150;2023-05-07T03:40:26;2.20;;;2.00;;
14276;SDS011;7222;57.346;12.150;2023-05-07T03:42:53;3.37;;;2.50;;
14276;SDS011;7222;57.346;12.150;2023-05-07T03:45:20;2.97;;;1.70;;
14276;SDS011;7222;57.346;12.150;2023-05-07T03:47:47;3.40;;;1.90;;
14276;SDS011;7222;57.346;12.150;2023-05-07T03:50:14;2.73;;;1.80;;
14276;SDS011;7222;57.346;12.150;2023-05-07T03:52:40;1.87;;;1.60;;
14276;SDS011;7222;57.346;12.150;2023-05-07T03:55:08;2.80;;;1.70;;
14276;SDS011;7222;57.346;12.150;2023-05-07T03:57:36;3.63;;;1.80;;
14276;SDS011;7222;57.346;12.150;2023-05-07T04:00:03;3.70;;;1.90;;
14276;SDS011;7222;57.346;12.150;2023-05-07T04:02:32;3.50;;;1.73;;
14276;SDS011;7222;57.346;12.150;2023-05-07T04:04:59;1.73;;;1.63;;
14276;SDS011;7222;57.346;12.150;2023-05-07T04:07:26;1.77;;;1.60;;
14276;SDS011;7222;57.346;12.150;2023-05-07T04:09:53;2.83;;;2.10;;
14276;SDS011;7222;57.346;12.150;2023-05-07T04:12:19;2.93;;;2.30;;
14276;SDS011;7222;57.346;12.150;2023-05-07T04:14:48;2.97;;;2.40;;
14276;SDS011;7222;57.346;12.150;2023-05-07T04:17:15;2.07;;;1.97;;
14276;SDS011;7222;57.346;12.150;2023-05-07T04:19:42;4.27;;;2.10;;
14276;SDS011;7222;57.346;12.150;2023-05-07T04:22:10;3.07;;;2.00;;
14276;SDS011;7222;57.346;12.150;2023-05-07T04:24:37;2.07;;;1.87;;
14276;SDS011;7222;57.346;12.150;2023-05-07T04:27:04;1.80;;;1.70;;
14276;SDS011;7222;57.346;12.150;2023-05-07T04:29:31;2.73;;;2.10;;
14276;SDS011;7222;57.346;12.150;2023-05-07T04:32:00;4.10;;;2.30;;
14276;SDS011;7222;57.346;12.150;2023-05-07T04:34:27;2.50;;;2.13;;
14276;SDS011;7222;57.346;12.150;2023-05-07T04:36:54;2.17;;;1.90;;
14276;SDS011;7222;57.346;12.150;2023-05-07T04:39:23;2.67;;;1.80;;
14276;SDS011;7222;57.346;12.150;2023-05-07T04:41:50;4.40;;;2.23;;
14276;SDS011;7222;57.346;12.150;2023-05-07T04:44:17;2.33;;;1.83;;
14276;SDS011;7222;57.346;12.150;2023-05-07T04:46:44;1.70;;;1.60;;
14276;SDS011;7222;57.346;12.150;2023-05-07T04:49:12;2.93;;;2.33;;
14276;SDS011;7222;57.346;12.150;2023-05-07T04:51:39;1.97;;;1.87;;
14276;SDS011;7222;57.346;12.150;2023-05-07T04:54:07;2.37;;;2.10;;
14276;SDS011;7222;57.346;12.150;2023-05-07T04:56:35;2.80;;;1.70;;
14276;SDS011;7222;57.346;12.150;2023-05-07T04:59:01;2.10;;;1.73;;
14276;SDS011;7222;57.346;12.150;2023-05-07T05:01:28;3.10;;;1.87;;
14276;SDS011;7222;57.346;12.150;2023-05-07T05:03:55;2.30;;;1.77;;
14276;SDS011;7222;57.346;12.150;2023-05-07T05:06:23;4.03;;;1.97;;
14276;SDS011;7222;57.346;12.150;2023-05-07T05:08:50;2.60;;;2.40;;
14276;SDS011;7222;57.346;12.150;2023-05-07T05:11:17;2.77;;;2.53;;
14276;SDS011;7222;57.346;12.150;2023-05-07T05:13:44;2.10;;;2.00;;
14276;SDS011;7222;57.346;12.150;2023-05-07T05:16:13;2.10;;;1.90;;
14276;SDS011;7222;57.346;12.150;2023-05-07T05:18:40;3.10;;;2.10;;
14276;SDS011;7222;57.346;12.150;2023-05-07T05:21:06;2.23;;;2.03;;
14276;SDS011;7222;57.346;12.150;2023-05-07T05:23:35;2.43;;;2.10;;
14276;SDS011;7222;57.346;12.150;2023-05-07T05:26:01;2.27;;;2.03;;
14276;SDS011;7222;57.346;12.150;2023-05-07T05:28:28;2.07;;;1.87;;
14276;SDS011;7222;57.346;12.150;2023-05-07T05:30:55;4.03;;;2.20;;
14276;SDS011;7222;57.346;12.150;2023-05-07T05:33:22;2.40;;;1.60;;
14276;SDS011;7222;57.346;12.150;2023-05-07T05:35:49;3.03;;;1.83;;
14276;SDS011;7222;57.346;12.150;2023-05-07T05:38:16;2.97;;;1.80;;
14276;SDS011;7222;57.346;12.150;2023-05-07T05:40:44;2.23;;;1.90;;
14276;SDS011;7222;57.346;12.150;2023-05-07T05:43:11;2.00;;;1.80;;
14276;SDS011;7222;57.346;12.150;2023-05-07T05:45:39;1.73;;;1.63;;
14276;SDS011;7222;57.346;12.150;2023-05-07T05:48:06;2.60;;;1.60;;
14276;SDS011;7222;57.346;12.150;2023-05-07T05:50:33;2.20;;;2.00;;
14276;SDS011;7222;57.346;12.150;2023-05-07T05:53:01;2.60;;;1.57;;
14276;SDS011;7222;57.346;12.150;2023-05-07T05:55:28;3.20;;;1.87;;
14276;SDS011;7222;57.346;12.150;2023-05-07T05:57:58;2.30;;;1.57;;
14276;SDS011;7222;57.346;12.150;2023-05-07T06:00:25;2.30;;;1.60;;
14276;SDS011;7222;57.346;12.150;2023-05-07T06:02:52;1.90;;;1.80;;
14276;SDS011;7222;57.346;12.150;2023-05-07T06:05:19;2.00;;;1.80;;
14276;SDS011;7222;57.346;12.150;2023-05-07T06:07:46;1.53;;;1.43;;
14276;SDS011;7222;57.346;12.150;2023-05-07T06:10:13;2.30;;;1.87;;
14276;SDS011;7222;57.346;12.150;2023-05-07T06:12:40;2.17;;;1.93;;
14276;SDS011;7222;57.346;12.150;2023-05-07T06:15:08;1.60;;;1.50;;
14276;SDS011;7222;57.346;12.150;2023-05-07T06:17:36;1.47;;;1.37;;
14276;SDS011;7222;57.346;12.150;2023-05-07T06:20:03;2.60;;;1.50;;
14276;SDS011;7222;57.346;12.150;2023-05-07T06:22:31;2.03;;;1.33;;
14276;SDS011;7222;57.346;12.150;2023-05-07T06:24:58;1.50;;;1.40;;
14276;SDS011;7222;57.346;12.150;2023-05-07T06:27:24;1.87;;;1.50;;
14276;SDS011;7222;57.346;12.150;2023-05-07T06:29:53;2.10;;;1.53;;
14276;SDS011;7222;57.346;12.150;2023-05-07T06:32:21;3.70;;;1.80;;
14276;SDS011;7222;57.346;12.150;2023-05-07T06:34:48;2.57;;;1.60;;
14276;SDS011;7222;57.346;12.150;2023-05-07T06:37:15;2.37;;;1.63;;
14276;SDS011;7222;57.346;12.150;2023-05-07T06:39:42;2.60;;;1.50;;
14276;SDS011;7222;57.346;12.150;2023-05-07T06:42:09;2.80;;;1.57;;
14276;SDS011;7222;57.346;12.150;2023-05-07T06:44:36;1.97;;;1.73;;
14276;SDS011;7222;57.346;12.150;2023-05-07T06:47:03;2.47;;;1.50;;
14276;SDS011;7222;57.346;12.150;2023-05-07T06:49:31;2.00;;;1.80;;
14276;SDS011;7222;57.346;12.150;2023-05-07T06:51:58;3.13;;;1.50;;
14276;SDS011;7222;57.346;12.150;2023-05-07T06:54:25;2.30;;;1.80;;
14276;SDS011;7222;57.346;12.150;2023-05-07T06:56:52;2.10;;;1.70;;
14276;SDS011;7222;57.346;12.150;2023-05-07T06:59:19;2.47;;;1.53;;
14276;SDS011;7222;57.346;12.150;2023-05-07T07:01:46;1.67;;;1.57;;
14276;SDS011;7222;57.346;12.150;2023-05-07T07:04:13;2.63;;;1.63;;
14276;SDS011;7222;57.346;12.150;2023-05-07T07:06:41;2.07;;;1.73;;
14276;SDS011;7222;57.346;12.150;2023-05-07T07:09:08;2.10;;;1.90;;
14276;SDS011;7222;57.346;12.150;2023-05-07T07:11:36;3.27;;;1.73;;
14276;SDS011;7222;57.346;12.150;2023-05-07T07:14:02;3.97;;;1.63;;
14276;SDS011;7222;57.346;12.150;2023-05-07T07:16:30;2.67;;;1.63;;
14276;SDS011;7222;57.346;12.150;2023-05-07T07:18:57;1.80;;;1.70;;
14276;SDS011;7222;57.346;12.150;2023-05-07T07:21:24;3.20;;;1.73;;
14276;SDS011;7222;57.346;12.150;2023-05-07T07:23:52;1.70;;;1.50;;
14276;SDS011;7222;57.346;12.150;2023-05-07T07:26:19;2.20;;;1.63;;
14276;SDS011;7222;57.346;12.150;2023-05-07T07:28:46;1.70;;;1.60;;
14276;SDS011;7222;57.346;12.150;2023-05-07T07:31:13;3.00;;;1.90;;
14276;SDS011;7222;57.346;12.150;2023-05-07T07:33:40;1.50;;;1.33;;
14276;SDS011;7222;57.346;12.150;2023-05-07T07:36:08;2.50;;;1.77;;
14276;SDS011;7222;57.346;12.150;2023-05-07T07:38:35;2.00;;;1.83;;
14276;SDS011;7222;57.346;12.150;2023-05-07T07:41:04;4.03;;;1.70;;
14276;SDS011;7222;57.346;12.150;2023-05-07T07:43:31;3.50;;;1.90;;
14276;SDS011;7222;57.346;12.150;2023-05-07T07:45:58;2.43;;;1.63;;
14276;SDS011;7222;57.346;12.150;2023-05-07T07:48:25;3.03;;;2.00;;
14276;SDS011;7222;57.346;12.150;2023-05-07T07:50:52;2.20;;;1.40;;
14276;SDS011;7222;57.346;12.150;2023-05-07T07:53:19;1.87;;;1.67;;
14276;SDS011;7222;57.346;12.150;2023-05-07T07:55:46;1.97;;;1.70;;
14276;SDS011;7222;57.346;12.150;2023-05-07T07:58:14;1.73;;;1.50;;
14276;SDS011;7222;57.346;12.150;2023-05-07T08:00:42;3.40;;;1.83;;
14276;SDS011;7222;57.346;12.150;2023-05-07T08:03:09;1.97;;;1.40;;
14276;SDS011;7222;57.346;12.150;2023-05-07T08:05:36;2.00;;;1.80;;
14276;SDS011;7222;57.346;12.150;2023-05-07T08:08:03;1.70;;;1.60;;
14276;SDS011;7222;57.346;12.150;2023-05-07T08:10:31;2.73;;;1.80;;
14276;SDS011;7222;57.346;12.150;2023-05-07T08:13:00;3.93;;;1.70;;
14276;SDS011;7222;57.346;12.150;2023-05-07T08:15:30;1.70;;;1.60;;
14276;SDS011;7222;57.346;12.150;2023-05-07T08:17:57;2.27;;;1.90;;
14276;SDS011;7222;57.346;12.150;2023-05-07T08:20:25;1.97;;;1.70;;
14276;SDS011;7222;57.346;12.150;2023-05-07T08:22:52;2.20;;;1.60;;
14276;SDS011;7222;57.346;12.150;2023-05-07T08:25:19;1.63;;;1.53;;
14276;SDS011;7222;57.346;12.150;2023-05-07T08:27:46;1.97;;;1.60;;
14276;SDS011;7222;57.346;12.150;2023-05-07T08:30:13;3.13;;;1.70;;
14276;SDS011;7222;57.346;12.150;2023-05-07T08:32:42;1.80;;;1.70;;
14276;SDS011;7222;57.346;12.150;2023-05-07T08:35:09;2.27;;;1.90;;
14276;SDS011;7222;57.346;12.150;2023-05-07T08:37:36;2.33;;;2.10;;
14276;SDS011;7222;57.346;12.150;2023-05-07T08:40:03;2.93;;;2.10;;
14276;SDS011;7222;57.346;12.150;2023-05-07T08:42:32;2.57;;;1.80;;
14276;SDS011;7222;57.346;12.150;2023-05-07T08:45:02;2.10;;;1.70;;
14276;SDS011;7222;57.346;12.150;2023-05-07T08:47:34;2.07;;;1.97;;
14276;SDS011;7222;57.346;12.150;2023-05-07T08:50:08;2.00;;;1.80;;
14276;SDS011;7222;57.346;12.150;2023-05-07T08:52:35;2.30;;;1.70;;
14276;SDS011;7222;57.346;12.150;2023-05-07T08:55:02;2.00;;;1.80;;
14276;SDS011;7222;57.346;12.150;2023-05-07T08:57:30;1.60;;;1.50;;
14276;SDS011;7222;57.346;12.150;2023-05-07T08:59:57;2.17;;;2.00;;
14276;SDS011;7222;57.346;12.150;2023-05-07T09:02:24;1.90;;;1.70;;
14276;SDS011;7222;57.346;12.150;2023-05-07T09:04:51;2.27;;;1.90;;
14276;SDS011;7222;57.346;12.150;2023-05-07T09:07:20;2.23;;;2.07;;
14276;SDS011;7222;57.346;12.150;2023-05-07T09:09:48;2.13;;;1.80;;
14276;SDS011;7222;57.346;12.150;2023-05-07T09:12:15;1.90;;;1.70;;
14276;SDS011;7222;57.346;12.150;2023-05-07T09:14:45;1.97;;;1.70;;
14276;SDS011;7222;57.346;12.150;2023-05-07T09:17:12;1.97;;;1.80;;
14276;SDS011;7222;57.346;12.150;2023-05-07T09:19:39;3.20;;;2.03;;
14276;SDS011;7222;57.346;12.150;2023-05-07T09:22:05;1.80;;;1.70;;
14276;SDS011;7222;57.346;12.150;2023-05-07T09:24:34;2.33;;;1.83;;
14276;SDS011;7222;57.346;12.150;2023-05-07T09:27:03;1.63;;;1.53;;
14276;SDS011;7222;57.346;12.150;2023-05-07T09:29:30;2.00;;;1.80;;
14276;SDS011;7222;57.346;12.150;2023-05-07T09:32:00;1.83;;;1.63;;
14276;SDS011;7222;57.346;12.150;2023-05-07T09:34:28;2.27;;;1.70;;
14276;SDS011;7222;57.346;12.150;2023-05-07T09:36:55;1.67;;;1.57;;
14276;SDS011;7222;57.346;12.150;2023-05-07T09:39:22;1.80;;;1.67;;
14276;SDS011;7222;57.346;12.150;2023-05-07T09:41:51;3.47;;;1.90;;
14276;SDS011;7222;57.346;12.150;2023-05-07T09:44:20;4.83;;;2.27;;
14276;SDS011;7222;57.346;12.150;2023-05-07T09:46:50;2.23;;;2.07;;
14276;SDS011;7222;57.346;12.150;2023-05-07T09:49:22;2.57;;;2.07;;
14276;SDS011;7222;57.346;12.150;2023-05-07T09:51:50;2.57;;;1.50;;
14276;SDS011;7222;57.346;12.150;2023-05-07T09:54:18;3.67;;;2.37;;
14276;SDS011;7222;57.346;12.150;2023-05-07T09:56:45;2.57;;;2.10;;
14276;SDS011;7222;57.346;12.150;2023-05-07T09:59:16;2.03;;;1.90;;
14276;SDS011;7222;57.346;12.150;2023-05-07T10:01:43;2.10;;;1.93;;
14276;SDS011;7222;57.346;12.150;2023-05-07T10:04:11;4.20;;;2.13;;
14276;SDS011;7222;57.346;12.150;2023-05-07T10:06:38;2.80;;;1.97;;
14276;SDS011;7222;57.346;12.150;2023-05-07T10:09:05;2.50;;;2.10;;
14276;SDS011;7222;57.346;12.150;2023-05-07T10:11:32;1.97;;;1.77;;
14276;SDS011;7222;57.346;12.150;2023-05-07T10:14:00;2.20;;;2.00;;
14276;SDS011;7222;57.346;12.150;2023-05-07T10:16:29;2.93;;;1.80;;
14276;SDS011;7222;57.346;12.150;2023-05-07T10:19:01;2.43;;;2.23;;
14276;SDS011;7222;57.346;12.150;2023-05-07T10:21:29;3.33;;;2.00;;
14276;SDS011;7222;57.346;12.150;2023-05-07T10:23:58;1.70;;;1.60;;
14276;SDS011;7222;57.346;12.150;2023-05-07T10:26:26;2.20;;;2.03;;
14276;SDS011;7222;57.346;12.150;2023-05-07T10:28:57;1.90;;;1.80;;
14276;SDS011;7222;57.346;12.150;2023-05-07T10:34:21;2.63;;;2.30;;
14276;SDS011;7222;57.346;12.150;2023-05-07T10:36:51;2.73;;;2.10;;
14276;SDS011;7222;57.346;12.150;2023-05-07T10:39:19;1.90;;;1.80;;
14276;SDS011;7222;57.346;12.150;2023-05-07T10:41:47;2.03;;;1.93;;
14276;SDS011;7222;57.346;12.150;2023-05-07T10:44:24;2.17;;;1.87;;
14276;SDS011;7222;57.346;12.150;2023-05-07T10:47:07;2.37;;;2.10;;
14276;SDS011;7222;57.346;12.150;2023-05-07T10:49:35;2.37;;;2.17;;
14276;SDS011;7222;57.346;12.150;2023-05-07T10:52:12;3.07;;;2.20;;
14276;SDS011;7222;57.346;12.150;2023-05-07T10:54:41;2.60;;;2.00;;
14276;SDS011;7222;57.346;12.150;2023-05-07T11:00:00;3.23;;;2.20;;
14276;SDS011;7222;57.346;12.150;2023-05-07T11:05:32;2.50;;;2.30;;
14276;SDS011;7222;57.346;12.150;2023-05-07T11:07:59;2.30;;;2.00;;
14276;SDS011;7222;57.346;12.150;2023-05-07T11:13:16;3.23;;;2.10;;
14276;SDS011;7222;57.346;12.150;2023-05-07T11:15:43;2.47;;;2.27;;
14276;SDS011;7222;57.346;12.150;2023-05-07T11:18:12;2.43;;;2.23;;
14276;SDS011;7222;57.346;12.150;2023-05-07T11:20:52;2.40;;;2.20;;
14276;SDS011;7222;57.346;12.150;2023-05-07T11:26:30;2.20;;;2.00;;
14276;SDS011;7222;57.346;12.150;2023-05-07T11:29:10;2.90;;;2.00;;
14276;SDS011;7222;57.346;12.150;2023-05-07T11:31:37;2.43;;;2.23;;
14276;SDS011;7222;57.346;12.150;2023-05-07T11:34:04;3.13;;;2.40;;
14276;SDS011;7222;57.346;12.150;2023-05-07T11:36:34;3.23;;;1.90;;
14276;SDS011;7222;57.346;12.150;2023-05-07T11:39:01;2.80;;;2.60;;
14276;SDS011;7222;57.346;12.150;2023-05-07T11:41:35;2.40;;;2.20;;
14276;SDS011;7222;57.346;12.150;2023-05-07T11:44:02;2.50;;;2.30;;
14276;SDS011;7222;57.346;12.150;2023-05-07T11:46:29;2.67;;;2.30;;
14276;SDS011;7222;57.346;12.150;2023-05-07T11:48:56;2.70;;;2.27;;
14276;SDS011;7222;57.346;12.150;2023-05-07T11:51:24;2.60;;;2.10;;
14276;SDS011;7222;57.346;12.150;2023-05-07T11:53:53;2.93;;;2.10;;
14276;SDS011;7222;57.346;12.150;2023-05-07T11:56:20;2.50;;;2.30;;
14276;SDS011;7222;57.346;12.150;2023-05-07T11:58:47;2.80;;;2.30;;
14276;SDS011;7222;57.346;12.150;2023-05-07T12:01:16;2.43;;;2.33;;
14276;SDS011;7222;57.346;12.150;2023-05-07T12:03:43;2.60;;;2.40;;
14276;SDS011;7222;57.346;12.150;2023-05-07T12:06:11;3.90;;;2.30;;
14276;SDS011;7222;57.346;12.150;2023-05-07T12:08:39;3.77;;;2.30;;
14276;SDS011;7222;57.346;12.150;2023-05-07T12:11:09;3.87;;;2.20;;
14276;SDS011;7222;57.346;12.150;2023-05-07T12:13:40;2.23;;;2.13;;
14276;SDS011;7222;57.346;12.150;2023-05-07T12:16:07;3.70;;;2.70;;
14276;SDS011;7222;57.346;12.150;2023-05-07T12:18:35;3.50;;;2.40;;
14276;SDS011;7222;57.346;12.150;2023-05-07T12:21:04;3.33;;;2.77;;
14276;SDS011;7222;57.346;12.150;2023-05-07T12:23:33;2.60;;;2.40;;
14276;SDS011;7222;57.346;12.150;2023-05-07T12:26:01;3.07;;;2.70;;
14276;SDS011;7222;57.346;12.150;2023-05-07T12:28:29;2.90;;;2.43;;
14276;SDS011;7222;57.346;12.150;2023-05-07T12:30:57;2.83;;;2.30;;
14276;SDS011;7222;57.346;12.150;2023-05-07T12:33:25;3.33;;;2.63;;
14276;SDS011;7222;57.346;12.150;2023-05-07T12:35:54;2.60;;;2.40;;
14276;SDS011;7222;57.346;12.150;2023-05-07T12:38:21;2.97;;;2.60;;
14276;SDS011;7222;57.346;12.150;2023-05-07T12:40:49;2.80;;;2.60;;
14276;SDS011;7222;57.346;12.150;2023-05-07T12:43:17;2.73;;;2.13;;
14276;SDS011;7222;57.346;12.150;2023-05-07T12:45:46;2.60;;;2.40;;
14276;SDS011;7222;57.346;12.150;2023-05-07T12:48:15;3.57;;;2.40;;
14276;SDS011;7222;57.346;12.150;2023-05-07T12:50:42;3.00;;;2.47;;
14276;SDS011;7222;57.346;12.150;2023-05-07T12:53:10;3.37;;;2.60;;
14276;SDS011;7222;57.346;12.150;2023-05-07T12:55:41;2.47;;;2.27;;
14276;SDS011;7222;57.346;12.150;2023-05-07T12:58:14;3.47;;;2.60;;
14276;SDS011;7222;57.346;12.150;2023-05-07T13:00:42;4.43;;;2.30;;
14276;SDS011;7222;57.346;12.150;2023-05-07T13:03:12;3.50;;;2.50;;
14276;SDS011;7222;57.346;12.150;2023-05-07T13:05:47;2.37;;;2.17;;
14276;SDS011;7222;57.346;12.150;2023-05-07T13:08:23;2.50;;;2.07;;
14276;SDS011;7222;57.346;12.150;2023-05-07T13:10:50;3.77;;;2.47;;
14276;SDS011;7222;57.346;12.150;2023-05-07T13:13:17;2.70;;;2.50;;
14276;SDS011;7222;57.346;12.150;2023-05-07T13:15:45;2.87;;;2.10;;
14276;SDS011;7222;57.346;12.150;2023-05-07T13:18:13;2.67;;;2.47;;
14276;SDS011;7222;57.346;12.150;2023-05-07T13:20:40;3.10;;;2.50;;
14276;SDS011;7222;57.346;12.150;2023-05-07T13:23:07;3.37;;;2.50;;
14276;SDS011;7222;57.346;12.150;2023-05-07T13:25:34;2.70;;;2.50;;
14276;SDS011;7222;57.346;12.150;2023-05-07T13:28:01;2.67;;;2.47;;
14276;SDS011;7222;57.346;12.150;2023-05-07T13:30:29;3.90;;;2.67;;
14276;SDS011;7222;57.346;12.150;2023-05-07T13:32:56;3.00;;;2.50;;
14276;SDS011;7222;57.346;12.150;2023-05-07T13:35:25;2.87;;;2.63;;
14276;SDS011;7222;57.346;12.150;2023-05-07T13:37:51;3.27;;;2.80;;
14276;SDS011;7222;57.346;12.150;2023-05-07T13:40:19;2.70;;;2.50;;
14276;SDS011;7222;57.346;12.150;2023-05-07T13:42:46;2.60;;;2.40;;
14276;SDS011;7222;57.346;12.150;2023-05-07T13:45:14;3.57;;;2.80;;
14276;SDS011;7222;57.346;12.150;2023-05-07T13:47:41;2.97;;;2.77;;
14276;SDS011;7222;57.346;12.150;2023-05-07T13:50:09;3.20;;;2.50;;
14276;SDS011;7222;57.346;12.150;2023-05-07T13:52:40;3.20;;;2.90;;
14276;SDS011;7222;57.346;12.150;2023-05-07T13:55:08;3.13;;;2.83;;
14276;SDS011;7222;57.346;12.150;2023-05-07T13:57:36;3.77;;;2.60;;
14276;SDS011;7222;57.346;12.150;2023-05-07T14:00:03;3.70;;;2.73;;
14276;SDS011;7222;57.346;12.150;2023-05-07T14:02:32;3.53;;;2.97;;
14276;SDS011;7222;57.346;12.150;2023-05-07T14:04:59;4.37;;;2.60;;
14276;SDS011;7222;57.346;12.150;2023-05-07T14:07:26;3.40;;;2.87;;
14276;SDS011;7222;57.346;12.150;2023-05-07T14:09:56;3.57;;;2.90;;
14276;SDS011;7222;57.346;12.150;2023-05-07T14:12:23;5.20;;;3.10;;
14276;SDS011;7222;57.346;12.150;2023-05-07T14:14:51;4.50;;;3.17;;
14276;SDS011;7222;57.346;12.150;2023-05-07T14:17:18;3.77;;;2.93;;
14276;SDS011;7222;57.346;12.150;2023-05-07T14:19:48;4.90;;;2.60;;
14276;SDS011;7222;57.346;12.150;2023-05-07T14:22:14;3.07;;;2.67;;
14276;SDS011;7222;57.346;12.150;2023-05-07T14:24:41;3.57;;;3.20;;
14276;SDS011;7222;57.346;12.150;2023-05-07T14:27:10;2.67;;;2.43;;
14276;SDS011;7222;57.346;12.150;2023-05-07T14:29:36;5.27;;;2.20;;
14276;SDS011;7222;57.346;12.150;2023-05-07T14:32:03;5.03;;;2.70;;
14276;SDS011;7222;57.346;12.150;2023-05-07T14:34:31;3.07;;;2.40;;
14276;SDS011;7222;57.346;12.150;2023-05-07T14:36:59;2.90;;;2.60;;
14276;SDS011;7222;57.346;12.150;2023-05-07T14:39:26;3.13;;;2.60;;
14276;SDS011;7222;57.346;12.150;2023-05-07T14:41:53;2.87;;;2.67;;
14276;SDS011;7222;57.346;12.150;2023-05-07T14:44:22;2.90;;;2.60;;
14276;SDS011;7222;57.346;12.150;2023-05-07T14:46:49;2.87;;;2.57;;
14276;SDS011;7222;57.346;12.150;2023-05-07T14:49:16;3.47;;;2.70;;
14276;SDS011;7222;57.346;12.150;2023-05-07T14:51:43;4.73;;;2.77;;
14276;SDS011;7222;57.346;12.150;2023-05-07T14:54:11;2.63;;;2.30;;
14276;SDS011;7222;57.346;12.150;2023-05-07T14:56:38;2.83;;;2.30;;
14276;SDS011;7222;57.346;12.150;2023-05-07T14:59:05;3.00;;;2.40;;
14276;SDS011;7222;57.346;12.150;2023-05-07T15:01:35;3.00;;;2.73;;
14276;SDS011;7222;57.346;12.150;2023-05-07T15:04:03;2.23;;;2.03;;
14276;SDS011;7222;57.346;12.150;2023-05-07T15:06:30;2.67;;;2.30;;